createdAt,value
2022-11-05T00:00:45.046Z,9.55
2022-11-05T00:03:12.641Z,9.50
2022-11-05T00:05:39.453Z,9.56
2022-11-05T00:08:08.938Z,9.48
2022-11-05T00:10:37.741Z,9.34
2022-11-05T00:13:07.567Z,9.30
2022-11-05T00:15:34.799Z,9.24
2022-11-05T00:18:01.643Z,9.23
2022-11-05T00:20:28.540Z,9.22
2022-11-05T00:23:00.297Z,9.17
2022-11-05T00:25:28.469Z,9.22
2022-11-05T00:28:00.712Z,9.21
2022-11-05T00:30:28.226Z,9.14
2022-11-05T00:33:01.017Z,9.11
2022-11-05T00:35:27.923Z,9.04
2022-11-05T00:37:54.583Z,9.05
2022-11-05T00:40:21.249Z,9.05
2022-11-05T00:42:49.242Z,8.95
2022-11-05T00:45:16.350Z,8.96
2022-11-05T00:47:43.341Z,8.92
2022-11-05T00:50:11.993Z,8.87
2022-11-05T00:52:38.894Z,8.87
2022-11-05T00:55:05.768Z,8.94
2022-11-05T00:57:32.281Z,8.83
2022-11-05T01:00:01.411Z,8.76
2022-11-05T01:02:27.985Z,8.79
2022-11-05T01:04:54.735Z,8.67
2022-11-05T01:07:21.648Z,8.73
2022-11-05T01:09:48.166Z,8.66
2022-11-05T01:12:15.136Z,8.66
2022-11-05T01:14:41.800Z,8.60
2022-11-05T01:17:09.744Z,8.55
2022-11-05T01:19:36.345Z,8.47
2022-11-05T01:22:02.823Z,8.48
2022-11-05T01:24:29.998Z,8.48
2022-11-05T01:26:56.786Z,8.46
2022-11-05T01:29:23.532Z,8.32
2022-11-05T01:31:50.078Z,8.36
2022-11-05T01:34:18.167Z,8.46
2022-11-05T01:36:44.854Z,8.33
2022-11-05T01:39:11.566Z,8.41
2022-11-05T01:41:38.155Z,8.39
2022-11-05T01:44:08.156Z,8.41
2022-11-05T01:46:38.659Z,8.42
2022-11-05T01:49:16.875Z,8.43
2022-11-05T01:51:46.591Z,8.43
2022-11-05T01:54:15.872Z,8.37
2022-11-05T01:56:47.018Z,8.42
2022-11-05T01:59:18.508Z,8.37
2022-11-05T02:01:45.312Z,8.32
2022-11-05T02:04:22.053Z,8.39
2022-11-05T02:06:50.666Z,8.44
2022-11-05T02:09:24.587Z,8.45
2022-11-05T02:11:51.610Z,8.52
2022-11-05T02:14:18.415Z,8.61
2022-11-05T02:16:50.823Z,8.76
2022-11-05T02:20:01.789Z,8.80
2022-11-05T02:23:04.005Z,8.76
2022-11-05T02:25:56.574Z,8.66
2022-11-05T02:28:57.006Z,8.68
2022-11-05T02:31:35.439Z,8.62
2022-11-05T02:34:17.250Z,8.77
2022-11-05T02:36:49.982Z,8.78
2022-11-05T02:39:29.543Z,8.88
2022-11-05T02:42:05.779Z,8.91
2022-11-05T02:44:41.429Z,8.96
2022-11-05T02:47:22.928Z,8.87
2022-11-05T02:49:58.180Z,8.77
2022-11-05T02:52:32.264Z,8.73
2022-11-05T02:55:06.826Z,8.70
2022-11-05T02:57:36.451Z,8.63
2022-11-05T03:00:07.136Z,8.55
2022-11-05T03:02:35.685Z,8.49
2022-11-05T03:05:05.116Z,8.50
2022-11-05T03:07:40.487Z,8.55
2022-11-05T03:10:24.414Z,8.63
2022-11-05T03:13:02.130Z,8.78
2022-11-05T03:15:42.616Z,8.96
2022-11-05T03:18:18.602Z,9.06
2022-11-05T03:20:52.178Z,9.15
2022-11-05T03:23:27.086Z,9.27
2022-11-05T03:25:59.265Z,9.28
2022-11-05T03:28:30.156Z,9.40
2022-11-05T03:30:58.521Z,9.41
2022-11-05T03:33:31.290Z,9.52
2022-11-05T03:36:04.164Z,9.58
2022-11-05T03:38:35.004Z,9.73
2022-11-05T03:41:07.801Z,9.72
2022-11-05T03:43:38.140Z,9.70
2022-11-05T03:46:10.145Z,9.60
2022-11-05T03:48:44.848Z,9.53
2022-11-05T03:51:18.032Z,9.61
2022-11-05T03:53:50.001Z,9.67
2022-11-05T03:56:20.912Z,9.55
2022-11-05T03:58:48.285Z,9.61
2022-11-05T04:01:15.842Z,9.52
2022-11-05T04:03:44.620Z,9.45
2022-11-05T04:06:13.955Z,9.28
2022-11-05T04:08:40.816Z,9.34
2022-11-05T04:11:08.216Z,9.18
2022-11-05T04:13:35.058Z,9.13
2022-11-05T04:16:02.009Z,9.11
2022-11-05T04:18:29.107Z,9.00
2022-11-05T04:20:57.287Z,9.02
2022-11-05T04:23:24.153Z,8.86
2022-11-05T04:25:52.631Z,8.80
2022-11-05T04:28:19.752Z,8.68
2022-11-05T04:30:46.582Z,8.60
2022-11-05T04:33:15.169Z,8.55
2022-11-05T04:35:44.605Z,8.43
2022-11-05T04:38:16.170Z,8.37
2022-11-05T04:40:43.687Z,8.38
2022-11-05T04:43:15.076Z,8.29
2022-11-05T04:45:42.877Z,8.17
2022-11-05T04:48:10.281Z,8.20
2022-11-05T04:50:37.080Z,8.15
2022-11-05T04:53:03.719Z,8.10
2022-11-05T04:55:35.500Z,8.03
2022-11-05T04:58:02.341Z,8.03
2022-11-05T05:00:29.340Z,8.07
2022-11-05T05:02:57.300Z,8.05
2022-11-05T05:05:24.167Z,7.99
2022-11-05T05:07:50.708Z,7.94
2022-11-05T05:10:17.774Z,7.90
2022-11-05T05:12:45.688Z,7.93
2022-11-05T05:15:12.513Z,7.83
2022-11-05T05:17:39.171Z,7.85
2022-11-05T05:20:06.845Z,7.83
2022-11-05T05:22:33.438Z,7.79
2022-11-05T05:25:00.138Z,7.74
2022-11-05T05:27:27.734Z,7.71
2022-11-05T05:29:55.968Z,7.70
2022-11-05T05:32:23.033Z,7.70
2022-11-05T05:34:50.163Z,7.56
2022-11-05T05:37:16.702Z,7.60
2022-11-05T05:39:44.938Z,7.56
2022-11-05T05:42:13.415Z,7.65
2022-11-05T05:44:40.710Z,7.74
2022-11-05T05:47:08.669Z,7.77
2022-11-05T05:49:35.273Z,7.84
2022-11-05T05:52:02.058Z,7.87
2022-11-05T05:54:32.327Z,7.84
2022-11-05T05:57:00.809Z,7.87
2022-11-05T05:59:27.415Z,7.75
2022-11-05T06:01:54.296Z,7.71
2022-11-05T06:04:22.948Z,7.63
2022-11-05T06:06:49.648Z,7.62
2022-11-05T06:09:16.625Z,7.45
2022-11-05T06:11:43.527Z,7.54
2022-11-05T06:14:11.190Z,7.46
2022-11-05T06:16:38.182Z,7.51
2022-11-05T06:19:07.848Z,7.47
2022-11-05T06:21:35.910Z,7.45
2022-11-05T06:24:04.455Z,7.46
2022-11-05T06:26:31.338Z,7.47
2022-11-05T06:28:57.925Z,7.47
2022-11-05T06:31:24.946Z,7.45
2022-11-05T06:33:51.618Z,7.54
2022-11-05T06:36:19.456Z,7.59
2022-11-05T06:38:48.775Z,7.49
2022-11-05T06:41:15.619Z,7.56
2022-11-05T06:43:43.409Z,7.57
2022-11-05T06:46:10.852Z,7.55
2022-11-05T06:48:39.205Z,7.61
2022-11-05T06:51:06.991Z,7.69
2022-11-05T06:53:35.698Z,7.69
2022-11-05T06:56:05.517Z,7.70
2022-11-05T06:58:32.539Z,7.62
2022-11-05T07:01:04.637Z,7.81
2022-11-05T07:03:31.456Z,7.92
2022-11-05T07:05:59.800Z,8.08
2022-11-05T07:08:27.501Z,8.12
2022-11-05T07:10:54.262Z,8.10
2022-11-05T07:13:22.456Z,8.25
2022-11-05T07:15:49.114Z,8.43
2022-11-05T07:18:16.911Z,8.50
2022-11-05T07:20:46.584Z,8.65
2022-11-05T07:23:15.446Z,8.81
2022-11-05T07:25:42.939Z,9.20
2022-11-05T07:28:11.238Z,9.53
2022-11-05T07:30:41.228Z,9.83
2022-11-05T07:33:08.277Z,10.38
2022-11-05T07:35:37.257Z,10.80
2022-11-05T07:38:05.276Z,10.88
2022-11-05T07:40:32.585Z,10.99
2022-11-05T07:43:01.952Z,11.02
2022-11-05T07:45:34.441Z,10.94
2022-11-05T07:48:20.918Z,10.97
2022-11-05T07:50:52.922Z,10.99
2022-11-05T07:53:28.613Z,11.12
2022-11-05T07:56:01.711Z,11.25
2022-11-05T07:58:32.624Z,11.43
2022-11-05T08:01:02.432Z,11.45
2022-11-05T08:03:39.814Z,11.43
2022-11-05T08:06:11.481Z,11.30
2022-11-05T08:08:38.574Z,11.50
2022-11-05T08:11:15.070Z,11.55
2022-11-05T08:14:45.469Z,11.55
2022-11-05T08:16:46.571Z,11.66
2022-11-05T08:19:29.987Z,12.00
2022-11-05T08:22:00.678Z,12.00
2022-11-05T08:24:27.885Z,12.02
2022-11-05T08:27:04.652Z,11.98
2022-11-05T08:29:34.545Z,12.22
2022-11-05T08:32:02.686Z,12.32
2022-11-05T08:34:36.833Z,12.37
2022-11-05T08:37:09.860Z,12.22
2022-11-05T08:42:32.361Z,12.36
2022-11-05T08:45:00.542Z,12.45
2022-11-05T08:47:27.234Z,12.43
2022-11-05T08:49:58.494Z,12.51
2022-11-05T08:52:25.247Z,12.44
2022-11-05T08:54:52.046Z,12.07
2022-11-05T08:57:18.915Z,12.15
2022-11-05T08:59:48.369Z,12.19
2022-11-05T09:02:16.719Z,12.19
2022-11-05T09:04:43.348Z,12.14
2022-11-05T09:07:11.623Z,12.29
2022-11-05T09:09:38.352Z,12.00
2022-11-05T09:12:12.441Z,11.87
2022-11-05T09:14:39.745Z,11.66
2022-11-05T09:17:15.746Z,11.71
2022-11-05T09:19:42.574Z,11.78
2022-11-05T09:22:09.150Z,11.65
2022-11-05T09:24:38.317Z,11.83
2022-11-05T09:27:04.916Z,11.86
2022-11-05T09:29:40.392Z,11.60
2022-11-05T09:32:07.387Z,11.54
2022-11-05T09:34:34.594Z,11.98
2022-11-05T09:37:01.492Z,11.95
2022-11-05T09:39:30.235Z,11.96
2022-11-05T09:42:02.480Z,11.94
2022-11-05T09:44:37.716Z,11.90
2022-11-05T09:47:10.003Z,12.16
2022-11-05T09:49:39.939Z,12.21
2022-11-05T09:52:13.435Z,12.29
2022-11-05T09:54:40.126Z,12.25
2022-11-05T09:57:17.197Z,12.13
2022-11-05T09:59:47.271Z,12.40
2022-11-05T10:02:19.431Z,12.44
2022-11-05T10:04:51.450Z,12.28
2022-11-05T10:07:23.135Z,12.36
2022-11-05T10:09:54.288Z,12.47
2022-11-05T10:12:28.547Z,12.38
2022-11-05T10:15:07.502Z,12.61
2022-11-05T10:17:39.466Z,12.59
2022-11-05T10:20:14.590Z,12.60
2022-11-05T10:22:49.344Z,12.47
2022-11-05T10:25:18.817Z,12.51
2022-11-05T10:27:51.951Z,12.63
2022-11-05T10:30:19.551Z,12.74
2022-11-05T10:32:48.217Z,12.77
2022-11-05T10:35:23.215Z,12.64
2022-11-05T10:37:50.874Z,12.74
2022-11-05T10:40:30.101Z,12.54
2022-11-05T10:43:04.380Z,12.79
2022-11-05T10:45:39.119Z,12.88
2022-11-05T10:48:36.060Z,13.01
2022-11-05T10:51:06.979Z,13.07
2022-11-05T10:53:36.957Z,13.18
2022-11-05T10:56:03.951Z,13.14
2022-11-05T10:58:33.375Z,13.13
2022-11-05T11:01:04.153Z,13.49
2022-11-05T11:03:37.632Z,13.42
2022-11-05T11:06:06.551Z,13.60
2022-11-05T11:08:37.517Z,13.76
2022-11-05T11:11:07.880Z,13.92
2022-11-05T11:13:54.346Z,13.93
2022-11-05T11:16:22.578Z,14.05
2022-11-05T11:18:54.311Z,14.04
2022-11-05T11:21:21.425Z,14.22
2022-11-05T11:23:54.937Z,14.07
2022-11-05T11:26:23.557Z,14.29
2022-11-05T11:28:57.760Z,14.37
2022-11-05T11:31:26.771Z,14.45
2022-11-05T11:34:01.193Z,14.76
2022-11-05T11:36:35.628Z,15.08
2022-11-05T11:39:04.914Z,15.34
2022-11-05T11:41:35.339Z,15.79
2022-11-05T11:44:11.671Z,15.50
2022-11-05T11:46:39.704Z,15.45
2022-11-05T11:49:07.292Z,15.53
2022-11-05T11:51:36.232Z,15.56
2022-11-05T11:54:04.095Z,15.62
2022-11-05T11:56:41.833Z,15.82
2022-11-05T11:59:20.192Z,15.72
2022-11-05T12:02:18.917Z,15.62
2022-11-05T12:05:14.377Z,15.39
2022-11-05T12:07:50.470Z,15.39
2022-11-05T12:10:26.285Z,15.33
2022-11-05T12:13:37.557Z,15.39
2022-11-05T12:16:17.318Z,15.51
2022-11-05T12:18:50.321Z,15.53
2022-11-05T12:21:48.135Z,15.43
2022-11-05T12:24:28.047Z,15.17
2022-11-05T12:27:06.606Z,15.21
2022-11-05T12:29:46.911Z,15.23
2022-11-05T12:32:37.942Z,15.56
2022-11-05T12:35:16.207Z,15.47
2022-11-05T12:37:53.476Z,15.49
2022-11-05T12:40:56.327Z,15.74
2022-11-05T12:43:34.314Z,16.03
2022-11-05T12:46:11.923Z,15.96
2022-11-05T12:49:00.028Z,16.29
2022-11-05T12:51:43.220Z,16.29
2022-11-05T12:54:21.304Z,16.27
2022-11-05T12:56:50.995Z,16.41
2022-11-05T12:59:23.471Z,16.38
2022-11-05T13:02:02.416Z,16.02
2022-11-05T13:04:37.960Z,15.92
2022-11-05T13:07:09.471Z,15.92
2022-11-05T13:09:42.270Z,15.32
2022-11-05T13:12:12.801Z,15.58
2022-11-05T13:14:45.275Z,15.32
2022-11-05T13:17:16.913Z,15.53
2022-11-05T13:19:51.778Z,15.55
2022-11-05T13:22:28.124Z,15.65
2022-11-05T13:24:58.596Z,15.59
2022-11-05T13:27:46.177Z,15.36
2022-11-05T13:30:18.610Z,15.34
2022-11-05T13:32:52.019Z,15.50
2022-11-05T13:35:27.631Z,15.43
2022-11-05T13:37:59.360Z,15.37
2022-11-05T13:40:39.641Z,15.62
2022-11-05T13:43:23.302Z,15.71
2022-11-05T13:46:16.101Z,15.68
2022-11-05T13:49:07.663Z,15.39
2022-11-05T13:51:52.015Z,15.34
2022-11-05T13:54:54.812Z,15.24
2022-11-05T13:57:34.812Z,15.02
2022-11-05T14:00:09.376Z,14.89
2022-11-05T14:02:39.661Z,14.67
2022-11-05T14:05:17.218Z,14.48
2022-11-05T14:07:47.515Z,14.66
2022-11-05T14:10:25.721Z,14.88
2022-11-05T14:12:55.517Z,14.61
2022-11-05T14:15:24.787Z,14.67
2022-11-05T14:17:58.101Z,14.77
2022-11-05T14:20:42.403Z,14.75
2022-11-05T14:23:38.775Z,14.80
2022-11-05T14:26:16.547Z,14.90
2022-11-05T14:28:48.173Z,14.87
2022-11-05T14:31:54.529Z,14.59
2022-11-05T14:34:40.026Z,14.42
2022-11-05T14:37:25.254Z,14.38
2022-11-05T14:39:55.096Z,14.50
2022-11-05T14:42:26.576Z,14.35
2022-11-05T14:45:00.979Z,14.27
2022-11-05T14:47:31.234Z,14.34
2022-11-05T14:50:02.376Z,14.24
2022-11-05T14:52:29.338Z,14.27
2022-11-05T14:54:58.947Z,14.02
2022-11-05T14:58:02.508Z,13.97
2022-11-05T15:00:51.654Z,14.03
2022-11-05T15:03:42.544Z,14.00
2022-11-05T15:06:27.826Z,13.97
2022-11-05T15:09:21.095Z,13.74
2022-11-05T15:12:19.746Z,13.85
2022-11-05T15:14:57.091Z,13.77
2022-11-05T15:17:27.377Z,13.62
2022-11-05T15:19:54.540Z,13.62
2022-11-05T15:22:32.708Z,13.54
2022-11-05T15:25:00.955Z,13.41
2022-11-05T15:27:46.812Z,13.34
2022-11-05T15:30:16.091Z,13.36
2022-11-05T15:32:42.718Z,13.10
2022-11-05T15:35:21.619Z,12.99
2022-11-05T15:37:54.599Z,12.75
2022-11-05T15:40:26.674Z,12.86
2022-11-05T15:43:14.527Z,12.79
2022-11-05T15:45:41.384Z,12.53
2022-11-05T15:48:15.462Z,12.54
2022-11-05T15:50:42.382Z,12.59
2022-11-05T15:53:37.454Z,12.66
2022-11-05T15:56:12.072Z,12.72
2022-11-05T15:58:47.136Z,12.75
2022-11-05T16:01:25.127Z,12.83
2022-11-05T16:03:53.788Z,12.77
2022-11-05T16:06:21.008Z,12.62
2022-11-05T16:08:51.294Z,12.69
2022-11-05T16:11:22.705Z,12.71
2022-11-05T16:13:51.730Z,12.52
2022-11-05T16:16:34.986Z,12.31
2022-11-05T16:19:01.531Z,12.50
2022-11-05T16:21:28.545Z,12.33
2022-11-05T16:23:57.137Z,12.41
2022-11-05T16:27:02.357Z,12.35
2022-11-05T16:29:27.353Z,12.48
2022-11-05T16:31:56.733Z,12.48
2022-11-05T16:34:29.032Z,12.50
2022-11-05T16:36:56.516Z,12.27
2022-11-05T16:39:23.535Z,12.57
2022-11-05T16:41:50.062Z,12.45
2022-11-05T16:44:16.695Z,12.63
2022-11-05T16:46:48.718Z,12.48
2022-11-05T16:49:16.401Z,12.48
2022-11-05T16:51:43.468Z,12.36
2022-11-05T16:54:10.915Z,12.48
2022-11-05T16:56:39.348Z,12.44
2022-11-05T16:59:06.062Z,12.45
2022-11-05T17:01:34.584Z,12.35
2022-11-05T17:04:02.885Z,12.44
2022-11-05T17:06:29.631Z,12.25
2022-11-05T17:08:56.504Z,12.35
2022-11-05T17:11:23.169Z,12.39
2022-11-05T17:13:50.351Z,12.29
2022-11-05T17:16:17.703Z,12.29
2022-11-05T17:18:44.750Z,12.28
2022-11-05T17:21:12.886Z,12.05
2022-11-05T17:23:39.984Z,12.27
2022-11-05T17:26:09.809Z,12.27
2022-11-05T17:28:37.461Z,12.34
2022-11-05T17:31:06.369Z,12.32
2022-11-05T17:33:33.786Z,12.08
2022-11-05T17:36:05.060Z,12.23
2022-11-05T17:38:33.189Z,12.20
2022-11-05T17:40:59.947Z,11.91
2022-11-05T17:43:26.531Z,12.05
2022-11-05T17:45:53.765Z,11.99
2022-11-05T17:48:21.008Z,12.04
2022-11-05T17:50:49.673Z,11.98
2022-11-05T17:53:20.045Z,12.05
2022-11-05T17:55:48.291Z,11.95
2022-11-05T17:58:15.045Z,11.91
2022-11-05T18:00:42.970Z,11.87
2022-11-05T18:03:11.409Z,12.02
2022-11-05T18:05:38.409Z,11.99
2022-11-05T18:08:05.795Z,11.79
2022-11-05T18:10:33.060Z,11.94
2022-11-05T18:13:01.052Z,11.99
2022-11-05T18:15:27.987Z,12.04
2022-11-05T18:17:54.794Z,12.00
2022-11-05T18:20:21.349Z,12.02
2022-11-05T18:22:50.077Z,11.77
2022-11-05T18:25:19.086Z,11.96
2022-11-05T18:27:46.004Z,11.56
2022-11-05T18:30:14.459Z,11.92
2022-11-05T18:32:41.123Z,11.93
2022-11-05T18:35:09.360Z,11.91
2022-11-05T18:37:37.890Z,11.48
2022-11-05T18:40:06.355Z,11.89
2022-11-05T18:42:33.011Z,11.94
2022-11-05T18:44:59.535Z,11.77
2022-11-05T18:47:27.957Z,11.85
2022-11-05T18:49:54.467Z,12.00
2022-11-05T18:52:21.070Z,11.89
2022-11-05T18:54:47.771Z,11.96
2022-11-05T18:57:14.335Z,11.70
2022-11-05T18:59:40.876Z,11.65
2022-11-05T19:02:08.528Z,11.57
2022-11-05T19:04:37.532Z,11.70
2022-11-05T19:07:05.394Z,11.65
2022-11-05T19:09:32.397Z,11.69
2022-11-05T19:11:59.006Z,11.77
2022-11-05T19:14:27.685Z,11.71
2022-11-05T19:16:54.230Z,11.75
2022-11-05T19:19:23.234Z,11.83
2022-11-05T19:21:51.627Z,11.53
2022-11-05T19:24:18.526Z,11.39
2022-11-05T19:26:45.660Z,11.59
2022-11-05T19:29:12.443Z,11.61
2022-11-05T19:31:39.426Z,11.60
2022-11-05T19:34:05.965Z,11.68
2022-11-05T19:36:33.683Z,11.70
2022-11-05T19:39:06.744Z,11.35
2022-11-05T19:41:35.700Z,11.67
2022-11-05T19:44:04.613Z,11.73
2022-11-05T19:46:32.092Z,11.76
2022-11-05T19:48:59.957Z,11.49
2022-11-05T19:51:28.886Z,11.52
2022-11-05T19:53:55.919Z,11.48
2022-11-05T19:56:25.495Z,11.37
2022-11-05T19:58:52.830Z,11.45
2022-11-05T20:01:21.407Z,11.50
2022-11-05T20:03:48.607Z,11.49
2022-11-05T20:06:20.892Z,11.37
2022-11-05T20:11:38.136Z,11.20
2022-11-05T20:14:06.982Z,11.16
2022-11-05T20:16:35.017Z,11.09
2022-11-05T20:19:01.714Z,11.07
2022-11-05T20:21:28.384Z,11.23
2022-11-05T20:23:55.597Z,11.26
2022-11-05T20:26:22.511Z,11.23
2022-11-05T20:28:50.632Z,11.43
2022-11-05T20:31:19.508Z,11.12
2022-11-05T20:33:46.648Z,11.14
2022-11-05T20:36:15.979Z,11.27
2022-11-05T20:38:43.224Z,11.09
2022-11-05T20:41:13.364Z,11.03
2022-11-05T20:43:40.809Z,11.01
2022-11-05T20:46:13.672Z,11.04
2022-11-05T20:48:41.032Z,10.98
2022-11-05T20:51:09.985Z,10.87
2022-11-05T20:53:37.470Z,11.03
2022-11-05T20:56:07.956Z,11.02
2022-11-05T20:58:38.214Z,10.81
2022-11-05T21:01:05.697Z,10.83
2022-11-05T21:03:34.455Z,10.77
2022-11-05T21:06:03.019Z,10.88
2022-11-05T21:08:29.946Z,10.93
2022-11-05T21:10:57.062Z,10.75
2022-11-05T21:13:24.258Z,10.72
2022-11-05T21:15:52.679Z,10.89
2022-11-05T21:18:22.021Z,10.84
2022-11-05T21:20:50.722Z,11.04
2022-11-05T21:23:17.559Z,10.82
2022-11-05T21:25:45.334Z,10.71
2022-11-05T21:28:13.589Z,10.84
2022-11-05T21:30:42.567Z,10.59
2022-11-05T21:33:09.323Z,10.62
2022-11-05T21:35:39.708Z,10.47
2022-11-05T21:38:07.724Z,10.42
2022-11-05T21:40:34.326Z,10.29
2022-11-05T21:43:00.856Z,10.49
2022-11-05T21:45:28.982Z,10.38
2022-11-05T21:47:55.918Z,10.46
2022-11-05T21:50:23.472Z,10.27
2022-11-05T21:52:50.110Z,10.50
2022-11-05T21:55:18.489Z,10.47
2022-11-05T21:57:45.338Z,10.58
2022-11-05T22:00:12.826Z,10.48
2022-11-05T22:02:39.497Z,10.61
2022-11-05T22:05:07.894Z,10.40
2022-11-05T22:07:36.560Z,10.53
2022-11-05T22:10:05.518Z,10.41
2022-11-05T22:12:34.160Z,10.43
2022-11-05T22:15:02.796Z,10.39
2022-11-05T22:17:31.255Z,10.37
2022-11-05T22:19:58.548Z,10.39
2022-11-05T22:22:25.363Z,10.29
2022-11-05T22:24:53.129Z,10.39
2022-11-05T22:27:20.796Z,10.22
2022-11-05T22:29:49.218Z,10.22
2022-11-05T22:32:16.882Z,10.19
2022-11-05T22:34:45.307Z,10.08
2022-11-05T22:37:12.932Z,10.20
2022-11-05T22:39:40.419Z,10.02
2022-11-05T22:42:09.086Z,10.12
2022-11-05T22:44:36.493Z,10.03
2022-11-05T22:47:04.894Z,10.11
2022-11-05T22:49:32.691Z,10.02
2022-11-05T22:51:59.767Z,9.90
2022-11-05T22:54:26.325Z,9.83
2022-11-05T22:56:53.069Z,9.92
2022-11-05T22:59:19.973Z,9.73
2022-11-05T23:01:47.110Z,9.75
2022-11-05T23:04:16.061Z,9.65
2022-11-05T23:06:43.434Z,9.87
2022-11-05T23:09:14.362Z,9.89
2022-11-05T23:11:41.940Z,9.85
2022-11-05T23:14:11.090Z,9.84
2022-11-05T23:16:38.677Z,9.98
2022-11-05T23:19:05.213Z,9.90
2022-11-05T23:21:33.414Z,9.84
2022-11-05T23:23:59.963Z,9.83
2022-11-05T23:26:29.716Z,9.83
2022-11-05T23:28:58.670Z,9.88
2022-11-05T23:31:25.390Z,10.00
2022-11-05T23:33:52.374Z,9.96
2022-11-05T23:36:18.951Z,9.89
2022-11-05T23:38:46.917Z,9.66
2022-11-05T23:41:16.700Z,9.78
2022-11-05T23:43:43.255Z,9.67
2022-11-05T23:46:10.035Z,9.67
2022-11-05T23:48:37.986Z,9.62
2022-11-05T23:51:06.553Z,9.51
2022-11-05T23:53:35.300Z,9.62
2022-11-05T23:56:06.495Z,9.56
2022-11-05T23:58:33.683Z,9.46
